sensor_id;sensor_type;location;lat;lon;timestamp;P1;durP1;ratioP1;P2;durP2;ratioP2
568;SDS011;269;48.884;9.192;2023-01-09T00:00:20;10.30;;;9.40;;
568;SDS011;269;48.884;9.192;2023-01-09T00:02:49;9.90;;;9.10;;
568;SDS011;269;48.884;9.192;2023-01-09T00:05:16;9.40;;;8.60;;
568;SDS011;269;48.884;9.192;2023-01-09T00:07:44;9.77;;;8.98;;
568;SDS011;269;48.884;9.192;2023-01-09T00:10:11;8.52;;;7.82;;
568;SDS011;269;48.884;9.192;2023-01-09T00:12:39;8.95;;;8.25;;
568;SDS011;269;48.884;9.192;2023-01-09T00:15:07;8.48;;;7.78;;
568;SDS011;269;48.884;9.192;2023-01-09T00:17:35;9.15;;;8.35;;
568;SDS011;269;48.884;9.192;2023-01-09T00:20:04;8.23;;;7.53;;
568;SDS011;269;48.884;9.192;2023-01-09T00:22:32;9.07;;;8.27;;
568;SDS011;269;48.884;9.192;2023-01-09T00:24:59;9.10;;;8.40;;
568;SDS011;269;48.884;9.192;2023-01-09T00:27:28;7.85;;;7.15;;
568;SDS011;269;48.884;9.192;2023-01-09T00:29:56;8.63;;;7.82;;
568;SDS011;269;48.884;9.192;2023-01-09T00:32:23;8.95;;;8.25;;
568;SDS011;269;48.884;9.192;2023-01-09T00:34:58;8.60;;;7.85;;
568;SDS011;269;48.884;9.192;2023-01-09T00:37:26;7.53;;;6.93;;
568;SDS011;269;48.884;9.192;2023-01-09T00:39:53;8.55;;;7.25;;
568;SDS011;269;48.884;9.192;2023-01-09T00:42:21;7.20;;;6.60;;
568;SDS011;269;48.884;9.192;2023-01-09T00:44:52;7.65;;;7.05;;
568;SDS011;269;48.884;9.192;2023-01-09T00:47:23;6.97;;;6.43;;
568;SDS011;269;48.884;9.192;2023-01-09T00:49:53;6.32;;;5.82;;
568;SDS011;269;48.884;9.192;2023-01-09T00:52:24;6.45;;;5.95;;
568;SDS011;269;48.884;9.192;2023-01-09T00:54:52;5.65;;;5.25;;
568;SDS011;269;48.884;9.192;2023-01-09T00:57:19;5.60;;;5.20;;
568;SDS011;269;48.884;9.192;2023-01-09T00:59:46;4.70;;;4.30;;
568;SDS011;269;48.884;9.192;2023-01-09T01:02:13;4.60;;;4.20;;
568;SDS011;269;48.884;9.192;2023-01-09T01:04:40;4.40;;;4.10;;
568;SDS011;269;48.884;9.192;2023-01-09T01:07:25;3.83;;;3.53;;
568;SDS011;269;48.884;9.192;2023-01-09T01:10:06;3.42;;;3.13;;
568;SDS011;269;48.884;9.192;2023-01-09T01:12:36;3.20;;;2.90;;
568;SDS011;269;48.884;9.192;2023-01-09T01:15:04;2.55;;;2.35;;
568;SDS011;269;48.884;9.192;2023-01-09T01:17:32;2.35;;;2.15;;
568;SDS011;269;48.884;9.192;2023-01-09T01:20:00;1.60;;;1.50;;
568;SDS011;269;48.884;9.192;2023-01-09T01:22:28;1.65;;;1.55;;
568;SDS011;269;48.884;9.192;2023-01-09T01:24:55;1.50;;;1.40;;
568;SDS011;269;48.884;9.192;2023-01-09T01:27:23;1.40;;;1.30;;
568;SDS011;269;48.884;9.192;2023-01-09T01:29:50;1.30;;;1.20;;
568;SDS011;269;48.884;9.192;2023-01-09T01:32:17;1.27;;;1.17;;
568;SDS011;269;48.884;9.192;2023-01-09T01:34:44;1.30;;;1.20;;
568;SDS011;269;48.884;9.192;2023-01-09T01:37:11;1.02;;;1.00;;
568;SDS011;269;48.884;9.192;2023-01-09T01:39:38;1.02;;;0.93;;
568;SDS011;269;48.884;9.192;2023-01-09T01:42:06;0.98;;;0.98;;
568;SDS011;269;48.884;9.192;2023-01-09T01:47:39;0.93;;;0.90;;
568;SDS011;269;48.884;9.192;2023-01-09T01:50:12;1.45;;;0.88;;
568;SDS011;269;48.884;9.192;2023-01-09T01:52:42;1.00;;;0.80;;
568;SDS011;269;48.884;9.192;2023-01-09T01:55:12;1.05;;;0.95;;
568;SDS011;269;48.884;9.192;2023-01-09T01:57:41;1.17;;;1.00;;
568;SDS011;269;48.884;9.192;2023-01-09T02:00:14;0.88;;;0.88;;
568;SDS011;269;48.884;9.192;2023-01-09T02:02:43;1.50;;;0.90;;
568;SDS011;269;48.884;9.192;2023-01-09T02:05:11;0.90;;;0.90;;
568;SDS011;269;48.884;9.192;2023-01-09T02:07:38;1.10;;;0.95;;
568;SDS011;269;48.884;9.192;2023-01-09T02:10:05;1.00;;;0.90;;
568;SDS011;269;48.884;9.192;2023-01-09T02:12:33;0.70;;;0.70;;
568;SDS011;269;48.884;9.192;2023-01-09T02:15:01;1.00;;;1.00;;
568;SDS011;269;48.884;9.192;2023-01-09T02:17:47;0.88;;;0.88;;
568;SDS011;269;48.884;9.192;2023-01-09T02:20:30;0.73;;;0.70;;
568;SDS011;269;48.884;9.192;2023-01-09T02:23:24;0.70;;;0.70;;
568;SDS011;269;48.884;9.192;2023-01-09T02:29:28;0.98;;;0.85;;
568;SDS011;269;48.884;9.192;2023-01-09T02:32:20;0.85;;;0.85;;
568;SDS011;269;48.884;9.192;2023-01-09T02:35:01;0.60;;;0.60;;
568;SDS011;269;48.884;9.192;2023-01-09T02:37:40;0.70;;;0.70;;
568;SDS011;269;48.884;9.192;2023-01-09T02:40:15;0.70;;;0.70;;
568;SDS011;269;48.884;9.192;2023-01-09T02:42:48;0.70;;;0.60;;
568;SDS011;269;48.884;9.192;2023-01-09T02:45:17;0.80;;;0.75;;
568;SDS011;269;48.884;9.192;2023-01-09T02:47:45;0.75;;;0.75;;
568;SDS011;269;48.884;9.192;2023-01-09T02:50:14;0.70;;;0.65;;
568;SDS011;269;48.884;9.192;2023-01-09T02:52:58;0.80;;;0.60;;
568;SDS011;269;48.884;9.192;2023-01-09T02:55:41;1.38;;;0.68;;
568;SDS011;269;48.884;9.192;2023-01-09T02:58:22;0.77;;;0.70;;
568;SDS011;269;48.884;9.192;2023-01-09T03:01:05;0.60;;;0.60;;
568;SDS011;269;48.884;9.192;2023-01-09T03:03:47;1.58;;;0.70;;
568;SDS011;269;48.884;9.192;2023-01-09T03:06:19;0.60;;;0.60;;
568;SDS011;269;48.884;9.192;2023-01-09T03:08:50;0.70;;;0.60;;
568;SDS011;269;48.884;9.192;2023-01-09T03:11:20;2.30;;;0.90;;
568;SDS011;269;48.884;9.192;2023-01-09T03:13:48;0.60;;;0.60;;
568;SDS011;269;48.884;9.192;2023-01-09T03:16:19;0.70;;;0.70;;
568;SDS011;269;48.884;9.192;2023-01-09T03:18:50;0.90;;;0.70;;
568;SDS011;269;48.884;9.192;2023-01-09T03:21:17;0.60;;;0.50;;
568;SDS011;269;48.884;9.192;2023-01-09T03:23:46;0.73;;;0.55;;
568;SDS011;269;48.884;9.192;2023-01-09T03:26:15;0.60;;;0.50;;
568;SDS011;269;48.884;9.192;2023-01-09T03:28:42;0.82;;;0.70;;
568;SDS011;269;48.884;9.192;2023-01-09T03:31:10;0.57;;;0.52;;
568;SDS011;269;48.884;9.192;2023-01-09T03:33:37;0.50;;;0.50;;
568;SDS011;269;48.884;9.192;2023-01-09T03:36:06;0.50;;;0.50;;
568;SDS011;269;48.884;9.192;2023-01-09T03:38:34;0.65;;;0.65;;
568;SDS011;269;48.884;9.192;2023-01-09T03:41:02;0.63;;;0.45;;
568;SDS011;269;48.884;9.192;2023-01-09T03:43:29;1.38;;;0.60;;
568;SDS011;269;48.884;9.192;2023-01-09T03:45:57;0.70;;;0.55;;
568;SDS011;269;48.884;9.192;2023-01-09T03:48:25;1.00;;;0.80;;
568;SDS011;269;48.884;9.192;2023-01-09T03:50:52;0.60;;;0.60;;
568;SDS011;269;48.884;9.192;2023-01-09T03:53:22;0.65;;;0.57;;
568;SDS011;269;48.884;9.192;2023-01-09T03:55:51;0.65;;;0.60;;
568;SDS011;269;48.884;9.192;2023-01-09T03:58:20;0.60;;;0.60;;
568;SDS011;269;48.884;9.192;2023-01-09T04:00:48;0.50;;;0.40;;
568;SDS011;269;48.884;9.192;2023-01-09T04:03:16;0.68;;;0.50;;
568;SDS011;269;48.884;9.192;2023-01-09T04:05:44;0.70;;;0.50;;
568;SDS011;269;48.884;9.192;2023-01-09T04:08:12;3.72;;;0.70;;
568;SDS011;269;48.884;9.192;2023-01-09T04:10:43;0.50;;;0.50;;
568;SDS011;269;48.884;9.192;2023-01-09T04:13:11;0.50;;;0.40;;
568;SDS011;269;48.884;9.192;2023-01-09T04:15:38;0.70;;;0.40;;
568;SDS011;269;48.884;9.192;2023-01-09T04:18:05;0.60;;;0.40;;
568;SDS011;269;48.884;9.192;2023-01-09T04:20:33;0.50;;;0.40;;
568;SDS011;269;48.884;9.192;2023-01-09T04:23:00;1.02;;;0.50;;
568;SDS011;269;48.884;9.192;2023-01-09T04:25:28;0.60;;;0.50;;
568;SDS011;269;48.884;9.192;2023-01-09T04:27:56;0.52;;;0.40;;
568;SDS011;269;48.884;9.192;2023-01-09T04:30:23;0.60;;;0.50;;
568;SDS011;269;48.884;9.192;2023-01-09T04:32:50;0.70;;;0.50;;
568;SDS011;269;48.884;9.192;2023-01-09T04:35:17;0.60;;;0.55;;
568;SDS011;269;48.884;9.192;2023-01-09T04:37:44;1.23;;;0.50;;
568;SDS011;269;48.884;9.192;2023-01-09T04:40:12;1.63;;;0.57;;
568;SDS011;269;48.884;9.192;2023-01-09T04:42:42;0.73;;;0.47;;
568;SDS011;269;48.884;9.192;2023-01-09T04:45:11;0.80;;;0.40;;
568;SDS011;269;48.884;9.192;2023-01-09T04:47:40;0.90;;;0.50;;
568;SDS011;269;48.884;9.192;2023-01-09T04:50:08;1.63;;;0.50;;
568;SDS011;269;48.884;9.192;2023-01-09T04:52:36;0.70;;;0.60;;
568;SDS011;269;48.884;9.192;2023-01-09T04:55:04;0.95;;;0.60;;
568;SDS011;269;48.884;9.192;2023-01-09T04:57:32;1.00;;;0.50;;
568;SDS011;269;48.884;9.192;2023-01-09T04:59:58;0.88;;;0.47;;
568;SDS011;269;48.884;9.192;2023-01-09T05:02:27;1.15;;;0.60;;
568;SDS011;269;48.884;9.192;2023-01-09T05:04:54;0.68;;;0.60;;
568;SDS011;269;48.884;9.192;2023-01-09T05:07:21;1.25;;;0.65;;
568;SDS011;269;48.884;9.192;2023-01-09T05:09:48;1.23;;;0.70;;
568;SDS011;269;48.884;9.192;2023-01-09T05:12:15;0.77;;;0.50;;
568;SDS011;269;48.884;9.192;2023-01-09T05:14:42;1.02;;;0.55;;
568;SDS011;269;48.884;9.192;2023-01-09T05:17:09;5.03;;;0.68;;
568;SDS011;269;48.884;9.192;2023-01-09T05:19:37;1.65;;;0.60;;
568;SDS011;269;48.884;9.192;2023-01-09T05:22:04;2.15;;;0.60;;
568;SDS011;269;48.884;9.192;2023-01-09T05:24:32;1.17;;;0.70;;
568;SDS011;269;48.884;9.192;2023-01-09T05:26:59;0.60;;;0.50;;
568;SDS011;269;48.884;9.192;2023-01-09T05:29:27;0.90;;;0.50;;
568;SDS011;269;48.884;9.192;2023-01-09T05:31:54;1.25;;;0.70;;
568;SDS011;269;48.884;9.192;2023-01-09T05:34:21;1.35;;;0.70;;
568;SDS011;269;48.884;9.192;2023-01-09T05:36:50;0.98;;;0.70;;
568;SDS011;269;48.884;9.192;2023-01-09T05:39:17;3.75;;;1.20;;
568;SDS011;269;48.884;9.192;2023-01-09T05:41:44;1.65;;;0.77;;
568;SDS011;269;48.884;9.192;2023-01-09T05:44:11;1.17;;;0.65;;
568;SDS011;269;48.884;9.192;2023-01-09T05:46:38;0.80;;;0.80;;
568;SDS011;269;48.884;9.192;2023-01-09T05:49:05;2.95;;;1.10;;
568;SDS011;269;48.884;9.192;2023-01-09T05:51:32;1.52;;;0.80;;
568;SDS011;269;48.884;9.192;2023-01-09T05:54:01;1.30;;;0.80;;
568;SDS011;269;48.884;9.192;2023-01-09T05:56:29;0.90;;;0.75;;
568;SDS011;269;48.884;9.192;2023-01-09T05:58:56;1.70;;;0.88;;
568;SDS011;269;48.884;9.192;2023-01-09T06:01:24;2.05;;;1.10;;
568;SDS011;269;48.884;9.192;2023-01-09T06:03:50;3.58;;;1.40;;
568;SDS011;269;48.884;9.192;2023-01-09T06:06:17;1.42;;;0.93;;
568;SDS011;269;48.884;9.192;2023-01-09T06:08:44;1.05;;;0.80;;
568;SDS011;269;48.884;9.192;2023-01-09T06:11:13;3.03;;;0.90;;
568;SDS011;269;48.884;9.192;2023-01-09T06:13:40;0.80;;;0.77;;
568;SDS011;269;48.884;9.192;2023-01-09T06:16:07;2.00;;;0.90;;
568;SDS011;269;48.884;9.192;2023-01-09T06:18:34;1.60;;;1.00;;
568;SDS011;269;48.884;9.192;2023-01-09T06:21:01;1.08;;;0.90;;
568;SDS011;269;48.884;9.192;2023-01-09T06:23:28;2.22;;;0.77;;
568;SDS011;269;48.884;9.192;2023-01-09T06:25:55;3.45;;;1.30;;
568;SDS011;269;48.884;9.192;2023-01-09T06:28:23;4.95;;;1.20;;
568;SDS011;269;48.884;9.192;2023-01-09T06:30:50;2.38;;;1.17;;
568;SDS011;269;48.884;9.192;2023-01-09T06:33:18;3.17;;;1.08;;
568;SDS011;269;48.884;9.192;2023-01-09T06:35:45;1.60;;;1.00;;
568;SDS011;269;48.884;9.192;2023-01-09T06:38:12;4.43;;;0.90;;
568;SDS011;269;48.884;9.192;2023-01-09T06:40:39;1.20;;;1.00;;
568;SDS011;269;48.884;9.192;2023-01-09T06:43:06;2.60;;;0.80;;
568;SDS011;269;48.884;9.192;2023-01-09T06:45:34;1.77;;;0.80;;
568;SDS011;269;48.884;9.192;2023-01-09T06:48:01;1.70;;;0.77;;
568;SDS011;269;48.884;9.192;2023-01-09T06:50:28;1.15;;;0.70;;
568;SDS011;269;48.884;9.192;2023-01-09T06:52:55;2.38;;;0.95;;
568;SDS011;269;48.884;9.192;2023-01-09T06:55:22;2.85;;;1.35;;
568;SDS011;269;48.884;9.192;2023-01-09T06:57:50;4.22;;;1.50;;
568;SDS011;269;48.884;9.192;2023-01-09T07:00:18;3.33;;;1.00;;
568;SDS011;269;48.884;9.192;2023-01-09T07:02:46;2.92;;;1.08;;
568;SDS011;269;48.884;9.192;2023-01-09T07:05:13;1.80;;;0.90;;
568;SDS011;269;48.884;9.192;2023-01-09T07:07:40;2.70;;;1.00;;
568;SDS011;269;48.884;9.192;2023-01-09T07:10:08;1.90;;;0.80;;
568;SDS011;269;48.884;9.192;2023-01-09T07:12:35;3.45;;;1.10;;
568;SDS011;269;48.884;9.192;2023-01-09T07:15:03;2.47;;;1.00;;
568;SDS011;269;48.884;9.192;2023-01-09T07:17:30;1.50;;;0.80;;
568;SDS011;269;48.884;9.192;2023-01-09T07:19:59;2.35;;;0.82;;
568;SDS011;269;48.884;9.192;2023-01-09T07:22:26;1.42;;;0.73;;
568;SDS011;269;48.884;9.192;2023-01-09T07:24:53;1.92;;;1.00;;
568;SDS011;269;48.884;9.192;2023-01-09T07:27:20;1.80;;;1.10;;
568;SDS011;269;48.884;9.192;2023-01-09T07:29:48;2.22;;;0.90;;
568;SDS011;269;48.884;9.192;2023-01-09T07:32:15;2.05;;;0.88;;
568;SDS011;269;48.884;9.192;2023-01-09T07:34:42;6.47;;;1.52;;
568;SDS011;269;48.884;9.192;2023-01-09T07:37:11;1.95;;;0.90;;
568;SDS011;269;48.884;9.192;2023-01-09T07:39:38;3.80;;;0.82;;
568;SDS011;269;48.884;9.192;2023-01-09T07:42:05;1.42;;;0.80;;
568;SDS011;269;48.884;9.192;2023-01-09T07:44:32;3.53;;;1.60;;
568;SDS011;269;48.884;9.192;2023-01-09T07:46:59;1.75;;;0.82;;
568;SDS011;269;48.884;9.192;2023-01-09T07:49:26;1.90;;;0.90;;
568;SDS011;269;48.884;9.192;2023-01-09T07:51:53;7.25;;;1.05;;
568;SDS011;269;48.884;9.192;2023-01-09T07:54:22;1.88;;;1.10;;
568;SDS011;269;48.884;9.192;2023-01-09T07:56:49;3.67;;;1.08;;
568;SDS011;269;48.884;9.192;2023-01-09T07:59:16;1.73;;;1.00;;
568;SDS011;269;48.884;9.192;2023-01-09T08:01:44;2.55;;;1.00;;
568;SDS011;269;48.884;9.192;2023-01-09T08:04:11;3.92;;;1.20;;
568;SDS011;269;48.884;9.192;2023-01-09T08:06:38;4.22;;;1.50;;
568;SDS011;269;48.884;9.192;2023-01-09T08:09:05;2.63;;;1.30;;
568;SDS011;269;48.884;9.192;2023-01-09T08:11:33;1.58;;;1.00;;
568;SDS011;269;48.884;9.192;2023-01-09T08:14:00;2.30;;;0.90;;
568;SDS011;269;48.884;9.192;2023-01-09T08:16:28;1.58;;;1.10;;
568;SDS011;269;48.884;9.192;2023-01-09T08:18:55;3.25;;;1.10;;
568;SDS011;269;48.884;9.192;2023-01-09T08:21:22;2.50;;;1.10;;
568;SDS011;269;48.884;9.192;2023-01-09T08:23:49;2.13;;;0.93;;
568;SDS011;269;48.884;9.192;2023-01-09T08:26:16;2.88;;;0.98;;
568;SDS011;269;48.884;9.192;2023-01-09T08:28:45;2.88;;;1.10;;
568;SDS011;269;48.884;9.192;2023-01-09T08:31:12;1.58;;;0.80;;
568;SDS011;269;48.884;9.192;2023-01-09T08:33:39;2.72;;;0.80;;
568;SDS011;269;48.884;9.192;2023-01-09T08:36:07;3.80;;;1.00;;
568;SDS011;269;48.884;9.192;2023-01-09T08:38:35;2.50;;;1.30;;
568;SDS011;269;48.884;9.192;2023-01-09T08:41:01;1.65;;;0.85;;
568;SDS011;269;48.884;9.192;2023-01-09T08:43:50;1.20;;;0.90;;
568;SDS011;269;48.884;9.192;2023-01-09T08:46:35;1.65;;;1.00;;
568;SDS011;269;48.884;9.192;2023-01-09T08:49:19;2.45;;;1.33;;
568;SDS011;269;48.884;9.192;2023-01-09T08:51:46;1.38;;;1.00;;
568;SDS011;269;48.884;9.192;2023-01-09T08:54:13;1.30;;;0.80;;
568;SDS011;269;48.884;9.192;2023-01-09T08:56:40;3.83;;;0.95;;
568;SDS011;269;48.884;9.192;2023-01-09T08:59:09;2.58;;;1.05;;
568;SDS011;269;48.884;9.192;2023-01-09T09:01:36;1.45;;;0.90;;
568;SDS011;269;48.884;9.192;2023-01-09T09:04:04;1.65;;;1.00;;
568;SDS011;269;48.884;9.192;2023-01-09T09:06:31;2.42;;;1.20;;
568;SDS011;269;48.884;9.192;2023-01-09T09:08:58;1.13;;;0.95;;
568;SDS011;269;48.884;9.192;2023-01-09T09:11:28;0.95;;;0.80;;
568;SDS011;269;48.884;9.192;2023-01-09T09:13:55;1.83;;;1.00;;
568;SDS011;269;48.884;9.192;2023-01-09T09:16:24;2.92;;;0.98;;
568;SDS011;269;48.884;9.192;2023-01-09T09:18:52;2.13;;;0.80;;
568;SDS011;269;48.884;9.192;2023-01-09T09:21:19;1.70;;;0.90;;
568;SDS011;269;48.884;9.192;2023-01-09T09:23:46;4.05;;;1.65;;
568;SDS011;269;48.884;9.192;2023-01-09T09:26:13;2.05;;;0.90;;
568;SDS011;269;48.884;9.192;2023-01-09T09:28:40;1.63;;;0.80;;
568;SDS011;269;48.884;9.192;2023-01-09T09:31:07;2.58;;;1.13;;
568;SDS011;269;48.884;9.192;2023-01-09T09:33:36;2.38;;;0.90;;
568;SDS011;269;48.884;9.192;2023-01-09T09:36:03;2.50;;;0.90;;
568;SDS011;269;48.884;9.192;2023-01-09T09:38:30;1.35;;;0.60;;
568;SDS011;269;48.884;9.192;2023-01-09T09:41:02;3.25;;;0.90;;
568;SDS011;269;48.884;9.192;2023-01-09T09:44:20;4.30;;;0.80;;
568;SDS011;269;48.884;9.192;2023-01-09T09:47:15;3.35;;;0.90;;
568;SDS011;269;48.884;9.192;2023-01-09T09:49:54;2.90;;;0.90;;
568;SDS011;269;48.884;9.192;2023-01-09T09:52:34;2.80;;;1.25;;
568;SDS011;269;48.884;9.192;2023-01-09T09:55:11;2.80;;;0.90;;
568;SDS011;269;48.884;9.192;2023-01-09T09:57:43;1.48;;;0.80;;
568;SDS011;269;48.884;9.192;2023-01-09T10:00:14;2.28;;;0.90;;
568;SDS011;269;48.884;9.192;2023-01-09T10:02:44;2.25;;;1.10;;
568;SDS011;269;48.884;9.192;2023-01-09T10:05:19;4.00;;;1.00;;
568;SDS011;269;48.884;9.192;2023-01-09T10:07:50;3.13;;;0.90;;
568;SDS011;269;48.884;9.192;2023-01-09T10:10:21;1.88;;;0.80;;
568;SDS011;269;48.884;9.192;2023-01-09T10:12:54;1.58;;;0.90;;
568;SDS011;269;48.884;9.192;2023-01-09T10:15:29;2.17;;;0.98;;
568;SDS011;269;48.884;9.192;2023-01-09T10:18:11;1.23;;;0.75;;
568;SDS011;269;48.884;9.192;2023-01-09T10:20:49;2.08;;;0.73;;
568;SDS011;269;48.884;9.192;2023-01-09T10:23:34;2.13;;;0.88;;
568;SDS011;269;48.884;9.192;2023-01-09T10:26:21;2.60;;;1.00;;
568;SDS011;269;48.884;9.192;2023-01-09T10:31:44;1.27;;;0.82;;
568;SDS011;269;48.884;9.192;2023-01-09T10:34:27;1.20;;;0.70;;
568;SDS011;269;48.884;9.192;2023-01-09T10:37:05;3.47;;;1.13;;
568;SDS011;269;48.884;9.192;2023-01-09T10:39:37;3.42;;;0.93;;
568;SDS011;269;48.884;9.192;2023-01-09T10:42:10;4.18;;;1.20;;
568;SDS011;269;48.884;9.192;2023-01-09T10:44:46;2.28;;;1.05;;
568;SDS011;269;48.884;9.192;2023-01-09T10:47:20;4.47;;;1.20;;
568;SDS011;269;48.884;9.192;2023-01-09T10:49:51;1.80;;;1.25;;
568;SDS011;269;48.884;9.192;2023-01-09T10:52:24;2.40;;;0.98;;
568;SDS011;269;48.884;9.192;2023-01-09T10:54:54;2.40;;;1.23;;
568;SDS011;269;48.884;9.192;2023-01-09T10:57:31;4.80;;;1.27;;
568;SDS011;269;48.884;9.192;2023-01-09T11:00:04;1.75;;;1.00;;
568;SDS011;269;48.884;9.192;2023-01-09T11:02:33;3.05;;;1.10;;
568;SDS011;269;48.884;9.192;2023-01-09T11:05:01;2.33;;;1.00;;
568;SDS011;269;48.884;9.192;2023-01-09T11:07:31;2.97;;;1.10;;
568;SDS011;269;48.884;9.192;2023-01-09T11:10:02;2.08;;;0.85;;
568;SDS011;269;48.884;9.192;2023-01-09T11:12:33;1.35;;;0.90;;
568;SDS011;269;48.884;9.192;2023-01-09T11:20:44;1.80;;;1.00;;
568;SDS011;269;48.884;9.192;2023-01-09T11:23:29;4.63;;;1.17;;
568;SDS011;269;48.884;9.192;2023-01-09T11:25:58;2.97;;;1.20;;
568;SDS011;269;48.884;9.192;2023-01-09T11:28:27;3.83;;;1.35;;
568;SDS011;269;48.884;9.192;2023-01-09T11:30:55;3.10;;;1.10;;
568;SDS011;269;48.884;9.192;2023-01-09T11:33:25;2.60;;;1.00;;
568;SDS011;269;48.884;9.192;2023-01-09T11:35:55;3.47;;;1.42;;
568;SDS011;269;48.884;9.192;2023-01-09T11:38:25;3.72;;;1.58;;
568;SDS011;269;48.884;9.192;2023-01-09T11:40:55;3.58;;;1.00;;
568;SDS011;269;48.884;9.192;2023-01-09T11:43:28;2.30;;;1.00;;
568;SDS011;269;48.884;9.192;2023-01-09T11:45:58;1.50;;;1.00;;
568;SDS011;269;48.884;9.192;2023-01-09T11:48:30;4.47;;;1.85;;
568;SDS011;269;48.884;9.192;2023-01-09T11:51:02;3.25;;;1.00;;
568;SDS011;269;48.884;9.192;2023-01-09T11:53:42;2.00;;;1.00;;
568;SDS011;269;48.884;9.192;2023-01-09T11:56:16;1.98;;;1.00;;
568;SDS011;269;48.884;9.192;2023-01-09T11:58:43;2.78;;;1.13;;
568;SDS011;269;48.884;9.192;2023-01-09T12:01:14;3.35;;;1.17;;
568;SDS011;269;48.884;9.192;2023-01-09T12:04:04;2.30;;;1.00;;
568;SDS011;269;48.884;9.192;2023-01-09T12:06:41;3.78;;;1.00;;
568;SDS011;269;48.884;9.192;2023-01-09T12:09:20;2.70;;;1.15;;
568;SDS011;269;48.884;9.192;2023-01-09T12:11:55;3.17;;;1.58;;
568;SDS011;269;48.884;9.192;2023-01-09T12:14:32;3.25;;;1.08;;
568;SDS011;269;48.884;9.192;2023-01-09T12:17:17;4.13;;;1.77;;
568;SDS011;269;48.884;9.192;2023-01-09T12:20:07;2.38;;;0.90;;
568;SDS011;269;48.884;9.192;2023-01-09T12:22:47;4.47;;;1.20;;
568;SDS011;269;48.884;9.192;2023-01-09T12:25:24;1.90;;;0.93;;
568;SDS011;269;48.884;9.192;2023-01-09T12:28:06;2.20;;;0.90;;
568;SDS011;269;48.884;9.192;2023-01-09T12:30:54;2.35;;;0.98;;
568;SDS011;269;48.884;9.192;2023-01-09T12:33:33;1.65;;;1.10;;
568;SDS011;269;48.884;9.192;2023-01-09T12:36:08;1.33;;;0.80;;
568;SDS011;269;48.884;9.192;2023-01-09T12:38:44;2.70;;;1.13;;
568;SDS011;269;48.884;9.192;2023-01-09T12:44:18;3.17;;;0.95;;
568;SDS011;269;48.884;9.192;2023-01-09T12:47:11;5.53;;;1.17;;
568;SDS011;269;48.884;9.192;2023-01-09T12:49:52;3.38;;;0.98;;
568;SDS011;269;48.884;9.192;2023-01-09T12:52:30;3.58;;;0.80;;
568;SDS011;269;48.884;9.192;2023-01-09T12:55:00;2.53;;;0.80;;
568;SDS011;269;48.884;9.192;2023-01-09T12:57:32;2.10;;;0.80;;
568;SDS011;269;48.884;9.192;2023-01-09T13:00:05;2.25;;;0.90;;
568;SDS011;269;48.884;9.192;2023-01-09T13:02:40;2.03;;;0.90;;
568;SDS011;269;48.884;9.192;2023-01-09T13:05:14;2.75;;;0.85;;
568;SDS011;269;48.884;9.192;2023-01-09T13:07:44;2.45;;;1.00;;
568;SDS011;269;48.884;9.192;2023-01-09T13:10:17;2.33;;;0.80;;
568;SDS011;269;48.884;9.192;2023-01-09T13:12:48;4.30;;;1.33;;
568;SDS011;269;48.884;9.192;2023-01-09T13:15:26;2.75;;;1.15;;
568;SDS011;269;48.884;9.192;2023-01-09T13:17:57;1.65;;;0.82;;
568;SDS011;269;48.884;9.192;2023-01-09T13:20:31;3.10;;;1.45;;
568;SDS011;269;48.884;9.192;2023-01-09T13:23:02;1.10;;;0.70;;
568;SDS011;269;48.884;9.192;2023-01-09T13:25:38;0.98;;;0.60;;
568;SDS011;269;48.884;9.192;2023-01-09T13:28:13;2.20;;;0.80;;
568;SDS011;269;48.884;9.192;2023-01-09T13:30:54;2.90;;;0.80;;
568;SDS011;269;48.884;9.192;2023-01-09T13:33:33;0.90;;;0.60;;
568;SDS011;269;48.884;9.192;2023-01-09T13:36:02;1.30;;;0.80;;
568;SDS011;269;48.884;9.192;2023-01-09T13:38:30;1.42;;;0.60;;
568;SDS011;269;48.884;9.192;2023-01-09T13:41:01;2.22;;;0.70;;
568;SDS011;269;48.884;9.192;2023-01-09T13:43:54;0.98;;;0.68;;
568;SDS011;269;48.884;9.192;2023-01-09T13:46:24;1.98;;;0.70;;
568;SDS011;269;48.884;9.192;2023-01-09T13:49:00;2.17;;;0.90;;
568;SDS011;269;48.884;9.192;2023-01-09T13:57:28;1.00;;;0.80;;
568;SDS011;269;48.884;9.192;2023-01-09T13:59:57;1.83;;;1.00;;
568;SDS011;269;48.884;9.192;2023-01-09T14:08:48;2.65;;;1.00;;
568;SDS011;269;48.884;9.192;2023-01-09T14:11:29;2.92;;;1.02;;
568;SDS011;269;48.884;9.192;2023-01-09T14:14:04;2.03;;;0.80;;
568;SDS011;269;48.884;9.192;2023-01-09T14:16:40;1.20;;;0.82;;
568;SDS011;269;48.884;9.192;2023-01-09T14:19:18;1.77;;;0.80;;
568;SDS011;269;48.884;9.192;2023-01-09T14:21:56;1.35;;;0.90;;
568;SDS011;269;48.884;9.192;2023-01-09T14:24:25;1.10;;;0.80;;
568;SDS011;269;48.884;9.192;2023-01-09T14:26:55;2.47;;;1.08;;
568;SDS011;269;48.884;9.192;2023-01-09T14:29:35;1.08;;;0.90;;
568;SDS011;269;48.884;9.192;2023-01-09T14:35:13;0.80;;;0.70;;
568;SDS011;269;48.884;9.192;2023-01-09T14:37:45;1.80;;;1.00;;
568;SDS011;269;48.884;9.192;2023-01-09T14:40:24;1.70;;;0.65;;
568;SDS011;269;48.884;9.192;2023-01-09T14:42:52;2.15;;;0.70;;
568;SDS011;269;48.884;9.192;2023-01-09T14:45:21;1.25;;;0.90;;
568;SDS011;269;48.884;9.192;2023-01-09T14:47:51;2.92;;;0.70;;
568;SDS011;269;48.884;9.192;2023-01-09T14:50:26;1.25;;;0.70;;
568;SDS011;269;48.884;9.192;2023-01-09T14:52:58;1.33;;;0.93;;
568;SDS011;269;48.884;9.192;2023-01-09T14:55:33;0.80;;;0.68;;
568;SDS011;269;48.884;9.192;2023-01-09T14:58:11;2.10;;;0.70;;
568;SDS011;269;48.884;9.192;2023-01-09T15:00:46;1.35;;;0.70;;
568;SDS011;269;48.884;9.192;2023-01-09T15:03:16;1.30;;;0.90;;
568;SDS011;269;48.884;9.192;2023-01-09T15:05:45;3.42;;;0.80;;
568;SDS011;269;48.884;9.192;2023-01-09T15:08:13;1.85;;;0.73;;
568;SDS011;269;48.884;9.192;2023-01-09T15:10:44;0.90;;;0.70;;
568;SDS011;269;48.884;9.192;2023-01-09T15:13:14;0.90;;;0.80;;
568;SDS011;269;48.884;9.192;2023-01-09T15:15:44;1.88;;;1.02;;
568;SDS011;269;48.884;9.192;2023-01-09T15:18:17;1.58;;;0.80;;
568;SDS011;269;48.884;9.192;2023-01-09T15:20:54;3.25;;;1.00;;
568;SDS011;269;48.884;9.192;2023-01-09T15:23:24;2.30;;;1.00;;
568;SDS011;269;48.884;9.192;2023-01-09T15:25:53;3.42;;;1.10;;
568;SDS011;269;48.884;9.192;2023-01-09T15:28:22;4.65;;;0.95;;
568;SDS011;269;48.884;9.192;2023-01-09T15:30:55;2.35;;;0.90;;
568;SDS011;269;48.884;9.192;2023-01-09T15:33:26;3.22;;;1.10;;
568;SDS011;269;48.884;9.192;2023-01-09T15:35:55;1.33;;;0.88;;
568;SDS011;269;48.884;9.192;2023-01-09T15:38:27;1.08;;;0.90;;
568;SDS011;269;48.884;9.192;2023-01-09T15:40:57;3.10;;;0.90;;
568;SDS011;269;48.884;9.192;2023-01-09T15:43:26;1.35;;;0.80;;
568;SDS011;269;48.884;9.192;2023-01-09T15:45:55;0.80;;;0.80;;
568;SDS011;269;48.884;9.192;2023-01-09T15:48:24;2.85;;;0.80;;
568;SDS011;269;48.884;9.192;2023-01-09T15:50:53;1.25;;;0.90;;
568;SDS011;269;48.884;9.192;2023-01-09T15:53:24;2.92;;;1.00;;
568;SDS011;269;48.884;9.192;2023-01-09T15:56:02;1.50;;;0.75;;
568;SDS011;269;48.884;9.192;2023-01-09T15:58:32;1.95;;;0.77;;
568;SDS011;269;48.884;9.192;2023-01-09T16:01:02;1.55;;;0.70;;
568;SDS011;269;48.884;9.192;2023-01-09T16:03:34;1.98;;;0.80;;
568;SDS011;269;48.884;9.192;2023-01-09T16:06:06;1.08;;;0.80;;
568;SDS011;269;48.884;9.192;2023-01-09T16:08:36;1.45;;;0.80;;
568;SDS011;269;48.884;9.192;2023-01-09T16:11:06;3.08;;;0.80;;
568;SDS011;269;48.884;9.192;2023-01-09T16:13:37;1.40;;;0.90;;
568;SDS011;269;48.884;9.192;2023-01-09T16:16:10;0.70;;;0.70;;
568;SDS011;269;48.884;9.192;2023-01-09T16:18:38;1.02;;;0.70;;
568;SDS011;269;48.884;9.192;2023-01-09T16:24:01;1.42;;;0.70;;
568;SDS011;269;48.884;9.192;2023-01-09T16:26:46;1.00;;;0.60;;
568;SDS011;269;48.884;9.192;2023-01-09T16:29:26;3.92;;;1.10;;
568;SDS011;269;48.884;9.192;2023-01-09T16:32:00;1.13;;;0.70;;
568;SDS011;269;48.884;9.192;2023-01-09T16:34:28;1.63;;;0.82;;
568;SDS011;269;48.884;9.192;2023-01-09T16:36:56;2.08;;;1.08;;
568;SDS011;269;48.884;9.192;2023-01-09T16:39:24;1.92;;;0.80;;
568;SDS011;269;48.884;9.192;2023-01-09T16:41:51;2.47;;;1.10;;
568;SDS011;269;48.884;9.192;2023-01-09T16:44:38;2.65;;;0.90;;